sensor_id;sensor_type;location;lat;lon;timestamp;temperature;humidity
14850;DHT22;7517;48.400;11.770;2022-12-19T00:00:22;1.00;75.00
14850;DHT22;7517;48.400;11.770;2022-12-19T00:02:49;1.20;75.00
14850;DHT22;7517;48.400;11.770;2022-12-19T00:05:16;1.00;74.50
14850;DHT22;7517;48.400;11.770;2022-12-19T00:07:50;2.00;75.40
14850;DHT22;7517;48.400;11.770;2022-12-19T00:10:18;1.00;74.90
14850;DHT22;7517;48.400;11.770;2022-12-19T00:12:45;1.00;75.00
14850;DHT22;7517;48.400;11.770;2022-12-19T00:15:12;1.80;75.60
14850;DHT22;7517;48.400;11.770;2022-12-19T00:17:43;2.80;76.30
14850;DHT22;7517;48.400;11.770;2022-12-19T00:20:11;1.10;75.40
14850;DHT22;7517;48.400;11.770;2022-12-19T00:22:38;1.10;75.30
14850;DHT22;7517;48.400;11.770;2022-12-19T00:25:12;1.10;75.20
14850;DHT22;7517;48.400;11.770;2022-12-19T00:27:39;1.10;75.50
14850;DHT22;7517;48.400;11.770;2022-12-19T00:30:07;1.40;75.70
14850;DHT22;7517;48.400;11.770;2022-12-19T00:32:36;1.20;75.60
14850;DHT22;7517;48.400;11.770;2022-12-19T00:35:11;1.80;75.90
14850;DHT22;7517;48.400;11.770;2022-12-19T00:37:48;1.20;75.50
14850;DHT22;7517;48.400;11.770;2022-12-19T00:40:16;1.20;75.70
14850;DHT22;7517;48.400;11.770;2022-12-19T00:42:47;1.20;75.80
14850;DHT22;7517;48.400;11.770;2022-12-19T00:45:25;1.30;75.80
14850;DHT22;7517;48.400;11.770;2022-12-19T00:47:53;1.80;76.70
14850;DHT22;7517;48.400;11.770;2022-12-19T00:50:21;1.30;75.80
14850;DHT22;7517;48.400;11.770;2022-12-19T00:52:50;1.30;75.80
14850;DHT22;7517;48.400;11.770;2022-12-19T00:55:18;1.30;75.70
14850;DHT22;7517;48.400;11.770;2022-12-19T00:57:46;1.40;75.80
14850;DHT22;7517;48.400;11.770;2022-12-19T01:00:14;1.40;75.70
14850;DHT22;7517;48.400;11.770;2022-12-19T01:02:42;1.40;75.50
14850;DHT22;7517;48.400;11.770;2022-12-19T01:05:10;1.40;75.20
14850;DHT22;7517;48.400;11.770;2022-12-19T01:07:39;1.40;75.20
14850;DHT22;7517;48.400;11.770;2022-12-19T01:10:07;1.40;75.00
14850;DHT22;7517;48.400;11.770;2022-12-19T01:12:35;1.40;75.20
14850;DHT22;7517;48.400;11.770;2022-12-19T01:15:10;1.60;75.40
14850;DHT22;7517;48.400;11.770;2022-12-19T01:17:38;1.40;75.40
14850;DHT22;7517;48.400;11.770;2022-12-19T01:20:06;1.50;75.50
14850;DHT22;7517;48.400;11.770;2022-12-19T01:22:35;1.50;75.50
14850;DHT22;7517;48.400;11.770;2022-12-19T01:25:07;1.50;75.60
14850;DHT22;7517;48.400;11.770;2022-12-19T01:27:34;1.50;75.60
14850;DHT22;7517;48.400;11.770;2022-12-19T01:30:03;1.50;75.60
14850;DHT22;7517;48.400;11.770;2022-12-19T01:32:33;1.50;75.50
14850;DHT22;7517;48.400;11.770;2022-12-19T01:35:00;2.20;75.80
14850;DHT22;7517;48.400;11.770;2022-12-19T01:37:27;1.60;75.90
14850;DHT22;7517;48.400;11.770;2022-12-19T01:39:55;1.80;75.20
14850;DHT22;7517;48.400;11.770;2022-12-19T01:42:23;1.50;75.00
14850;DHT22;7517;48.400;11.770;2022-12-19T01:45:22;1.60;75.20
14850;DHT22;7517;48.400;11.770;2022-12-19T01:47:53;1.60;75.00
14850;DHT22;7517;48.400;11.770;2022-12-19T01:50:28;1.60;75.30
14850;DHT22;7517;48.400;11.770;2022-12-19T01:53:00;1.60;75.40
14850;DHT22;7517;48.400;11.770;2022-12-19T01:55:30;1.60;75.60
14850;DHT22;7517;48.400;11.770;2022-12-19T01:57:59;1.60;75.60
14850;DHT22;7517;48.400;11.770;2022-12-19T02:00:27;1.60;75.50
14850;DHT22;7517;48.400;11.770;2022-12-19T02:02:58;1.60;75.50
14850;DHT22;7517;48.400;11.770;2022-12-19T02:05:31;1.60;75.50
14850;DHT22;7517;48.400;11.770;2022-12-19T02:08:00;1.60;75.60
14850;DHT22;7517;48.400;11.770;2022-12-19T02:10:27;1.60;75.60
14850;DHT22;7517;48.400;11.770;2022-12-19T02:12:54;1.80;75.80
14850;DHT22;7517;48.400;11.770;2022-12-19T02:15:25;1.70;75.60
14850;DHT22;7517;48.400;11.770;2022-12-19T02:18:05;1.70;75.60
14850;DHT22;7517;48.400;11.770;2022-12-19T02:27:34;1.70;75.10
14850;DHT22;7517;48.400;11.770;2022-12-19T02:30:40;1.70;75.10
14850;DHT22;7517;48.400;11.770;2022-12-19T02:33:20;1.70;75.00
14850;DHT22;7517;48.400;11.770;2022-12-19T02:35:59;1.70;75.40
14850;DHT22;7517;48.400;11.770;2022-12-19T02:38:36;1.70;75.40
14850;DHT22;7517;48.400;11.770;2022-12-19T02:41:12;2.60;75.80
14850;DHT22;7517;48.400;11.770;2022-12-19T02:43:48;1.60;75.10
14850;DHT22;7517;48.400;11.770;2022-12-19T02:46:19;1.70;75.30
14850;DHT22;7517;48.400;11.770;2022-12-19T02:48:49;1.70;75.30
14850;DHT22;7517;48.400;11.770;2022-12-19T02:51:17;1.70;75.30
14850;DHT22;7517;48.400;11.770;2022-12-19T02:53:44;1.70;75.20
14850;DHT22;7517;48.400;11.770;2022-12-19T02:56:28;2.20;75.60
14850;DHT22;7517;48.400;11.770;2022-12-19T02:59:25;1.70;75.00
14850;DHT22;7517;48.400;11.770;2022-12-19T03:02:05;1.70;74.80
14850;DHT22;7517;48.400;11.770;2022-12-19T03:04:44;1.70;75.00
14850;DHT22;7517;48.400;11.770;2022-12-19T03:07:25;1.70;75.10
14850;DHT22;7517;48.400;11.770;2022-12-19T03:10:17;1.60;75.20
14850;DHT22;7517;48.400;11.770;2022-12-19T03:12:55;1.70;75.20
14850;DHT22;7517;48.400;11.770;2022-12-19T03:15:26;1.70;75.40
14850;DHT22;7517;48.400;11.770;2022-12-19T03:17:58;1.70;75.50
14850;DHT22;7517;48.400;11.770;2022-12-19T03:20:35;1.70;75.50
14850;DHT22;7517;48.400;11.770;2022-12-19T03:23:10;1.70;75.50
14850;DHT22;7517;48.400;11.770;2022-12-19T03:25:40;2.80;76.30
14850;DHT22;7517;48.400;11.770;2022-12-19T03:28:19;1.70;75.70
14850;DHT22;7517;48.400;11.770;2022-12-19T03:30:50;1.70;75.80
14850;DHT22;7517;48.400;11.770;2022-12-19T03:33:19;1.70;75.80
14850;DHT22;7517;48.400;11.770;2022-12-19T03:35:49;1.70;75.90
14850;DHT22;7517;48.400;11.770;2022-12-19T03:38:19;1.70;75.90
14850;DHT22;7517;48.400;11.770;2022-12-19T03:40:49;2.50;76.40
14850;DHT22;7517;48.400;11.770;2022-12-19T03:43:18;1.80;75.90
14850;DHT22;7517;48.400;11.770;2022-12-19T03:45:51;1.80;75.90
14850;DHT22;7517;48.400;11.770;2022-12-19T03:48:32;1.80;75.80
14850;DHT22;7517;48.400;11.770;2022-12-19T03:51:10;2.40;76.10
14850;DHT22;7517;48.400;11.770;2022-12-19T03:53:50;1.90;75.90
14850;DHT22;7517;48.400;11.770;2022-12-19T03:56:31;1.90;75.90
14850;DHT22;7517;48.400;11.770;2022-12-19T03:59:05;1.90;75.90
14850;DHT22;7517;48.400;11.770;2022-12-19T04:01:35;1.90;75.90
14850;DHT22;7517;48.400;11.770;2022-12-19T04:04:11;1.90;75.90
14850;DHT22;7517;48.400;11.770;2022-12-19T04:06:43;2.00;75.90
14850;DHT22;7517;48.400;11.770;2022-12-19T04:09:11;1.90;76.30
14850;DHT22;7517;48.400;11.770;2022-12-19T04:11:42;2.00;76.00
14850;DHT22;7517;48.400;11.770;2022-12-19T04:14:18;2.80;76.40
14850;DHT22;7517;48.400;11.770;2022-12-19T04:16:56;3.00;76.40
14850;DHT22;7517;48.400;11.770;2022-12-19T04:19:38;2.00;75.80
14850;DHT22;7517;48.400;11.770;2022-12-19T04:22:12;2.00;75.90
14850;DHT22;7517;48.400;11.770;2022-12-19T04:24:45;2.00;76.00
14850;DHT22;7517;48.400;11.770;2022-12-19T04:27:16;2.00;76.00
14850;DHT22;7517;48.400;11.770;2022-12-19T04:29:46;2.00;75.90
14850;DHT22;7517;48.400;11.770;2022-12-19T04:32:17;2.70;76.20
14850;DHT22;7517;48.400;11.770;2022-12-19T04:34:46;2.50;76.00
14850;DHT22;7517;48.400;11.770;2022-12-19T04:37:16;2.70;76.20
14850;DHT22;7517;48.400;11.770;2022-12-19T04:39:43;2.00;75.80
14850;DHT22;7517;48.400;11.770;2022-12-19T04:42:10;2.10;75.80
14850;DHT22;7517;48.400;11.770;2022-12-19T04:44:38;2.20;75.70
14850;DHT22;7517;48.400;11.770;2022-12-19T04:47:05;2.50;75.80
14850;DHT22;7517;48.400;11.770;2022-12-19T04:49:32;2.10;75.60
14850;DHT22;7517;48.400;11.770;2022-12-19T04:52:01;2.10;75.70
14850;DHT22;7517;48.400;11.770;2022-12-19T04:54:28;2.30;75.80
14850;DHT22;7517;48.400;11.770;2022-12-19T04:56:56;2.10;75.80
14850;DHT22;7517;48.400;11.770;2022-12-19T04:59:23;2.60;76.10
14850;DHT22;7517;48.400;11.770;2022-12-19T05:01:50;3.10;76.40
14850;DHT22;7517;48.400;11.770;2022-12-19T05:04:18;2.10;75.80
14850;DHT22;7517;48.400;11.770;2022-12-19T05:06:45;2.20;75.60
14850;DHT22;7517;48.400;11.770;2022-12-19T05:09:13;2.20;75.70
14850;DHT22;7517;48.400;11.770;2022-12-19T05:11:41;1.90;75.60
14850;DHT22;7517;48.400;11.770;2022-12-19T05:14:08;2.80;76.10
14850;DHT22;7517;48.400;11.770;2022-12-19T05:16:35;3.40;76.30
14850;DHT22;7517;48.400;11.770;2022-12-19T05:19:03;2.20;75.60
14850;DHT22;7517;48.400;11.770;2022-12-19T05:21:30;2.20;75.70
14850;DHT22;7517;48.400;11.770;2022-12-19T05:23:57;2.20;75.50
14850;DHT22;7517;48.400;11.770;2022-12-19T05:26:25;3.40;76.40
14850;DHT22;7517;48.400;11.770;2022-12-19T05:28:53;2.20;75.70
14850;DHT22;7517;48.400;11.770;2022-12-19T05:31:20;2.30;75.40
14850;DHT22;7517;48.400;11.770;2022-12-19T05:33:47;2.20;75.20
14850;DHT22;7517;48.400;11.770;2022-12-19T05:36:16;2.10;75.20
14850;DHT22;7517;48.400;11.770;2022-12-19T05:38:43;2.10;75.40
14850;DHT22;7517;48.400;11.770;2022-12-19T05:41:16;2.10;75.50
14850;DHT22;7517;48.400;11.770;2022-12-19T05:43:49;2.10;75.50
14850;DHT22;7517;48.400;11.770;2022-12-19T05:46:19;2.10;75.40
14850;DHT22;7517;48.400;11.770;2022-12-19T05:49:05;3.00;76.10
14850;DHT22;7517;48.400;11.770;2022-12-19T05:51:51;2.20;75.10
14850;DHT22;7517;48.400;11.770;2022-12-19T05:54:18;2.10;75.40
14850;DHT22;7517;48.400;11.770;2022-12-19T05:56:45;2.50;75.80
14850;DHT22;7517;48.400;11.770;2022-12-19T05:59:14;2.10;75.70
14850;DHT22;7517;48.400;11.770;2022-12-19T06:01:41;2.10;76.50
14850;DHT22;7517;48.400;11.770;2022-12-19T06:04:08;2.20;75.80
14850;DHT22;7517;48.400;11.770;2022-12-19T06:06:35;2.90;76.30
14850;DHT22;7517;48.400;11.770;2022-12-19T06:09:03;2.20;75.70
14850;DHT22;7517;48.400;11.770;2022-12-19T06:11:30;2.20;75.30
14850;DHT22;7517;48.400;11.770;2022-12-19T06:13:57;2.20;75.30
14850;DHT22;7517;48.400;11.770;2022-12-19T06:16:26;2.30;75.30
14850;DHT22;7517;48.400;11.770;2022-12-19T06:18:53;2.20;75.10
14850;DHT22;7517;48.400;11.770;2022-12-19T06:21:21;2.20;75.10
14850;DHT22;7517;48.400;11.770;2022-12-19T06:23:49;2.40;75.60
14850;DHT22;7517;48.400;11.770;2022-12-19T06:26:18;2.20;75.60
14850;DHT22;7517;48.400;11.770;2022-12-19T06:28:46;2.20;75.80
14850;DHT22;7517;48.400;11.770;2022-12-19T06:31:14;2.30;76.00
14850;DHT22;7517;48.400;11.770;2022-12-19T06:33:44;2.20;76.00
14850;DHT22;7517;48.400;11.770;2022-12-19T06:36:13;2.30;76.00
14850;DHT22;7517;48.400;11.770;2022-12-19T06:38:44;3.50;76.60
14850;DHT22;7517;48.400;11.770;2022-12-19T06:41:11;2.30;75.90
14850;DHT22;7517;48.400;11.770;2022-12-19T06:43:57;2.30;76.30
14850;DHT22;7517;48.400;11.770;2022-12-19T06:46:24;2.30;76.40
14850;DHT22;7517;48.400;11.770;2022-12-19T06:48:53;3.10;77.00
14850;DHT22;7517;48.400;11.770;2022-12-19T06:51:20;3.50;77.20
14850;DHT22;7517;48.400;11.770;2022-12-19T06:53:48;2.40;76.30
14850;DHT22;7517;48.400;11.770;2022-12-19T06:56:16;2.40;76.40
14850;DHT22;7517;48.400;11.770;2022-12-19T06:58:43;2.40;76.10
14850;DHT22;7517;48.400;11.770;2022-12-19T07:01:15;2.50;76.20
14850;DHT22;7517;48.400;11.770;2022-12-19T07:03:44;2.60;76.30
14850;DHT22;7517;48.400;11.770;2022-12-19T07:06:14;2.50;76.10
14850;DHT22;7517;48.400;11.770;2022-12-19T07:08:41;2.50;76.30
14850;DHT22;7517;48.400;11.770;2022-12-19T07:11:09;3.00;76.80
14850;DHT22;7517;48.400;11.770;2022-12-19T07:13:36;2.60;76.60
14850;DHT22;7517;48.400;11.770;2022-12-19T07:16:04;2.60;76.50
14850;DHT22;7517;48.400;11.770;2022-12-19T07:18:36;2.60;76.50
14850;DHT22;7517;48.400;11.770;2022-12-19T07:21:15;2.60;76.40
14850;DHT22;7517;48.400;11.770;2022-12-19T07:23:42;2.60;76.40
14850;DHT22;7517;48.400;11.770;2022-12-19T07:26:10;2.90;76.70
14850;DHT22;7517;48.400;11.770;2022-12-19T07:28:38;2.70;76.60
14850;DHT22;7517;48.400;11.770;2022-12-19T07:31:05;2.70;76.70
14850;DHT22;7517;48.400;11.770;2022-12-19T07:33:32;2.70;76.60
14850;DHT22;7517;48.400;11.770;2022-12-19T07:35:59;2.80;76.60
14850;DHT22;7517;48.400;11.770;2022-12-19T07:38:28;2.80;76.80
14850;DHT22;7517;48.400;11.770;2022-12-19T07:40:55;2.80;76.90
14850;DHT22;7517;48.400;11.770;2022-12-19T07:43:26;3.10;77.10
14850;DHT22;7517;48.400;11.770;2022-12-19T07:45:54;2.90;77.10
14850;DHT22;7517;48.400;11.770;2022-12-19T07:48:22;3.00;77.00
14850;DHT22;7517;48.400;11.770;2022-12-19T07:50:49;3.00;76.80
14850;DHT22;7517;48.400;11.770;2022-12-19T07:53:17;3.10;76.60
14850;DHT22;7517;48.400;11.770;2022-12-19T07:55:49;3.10;76.80
14850;DHT22;7517;48.400;11.770;2022-12-19T07:58:16;3.70;77.30
14850;DHT22;7517;48.400;11.770;2022-12-19T08:00:44;3.20;76.90
14850;DHT22;7517;48.400;11.770;2022-12-19T08:03:11;4.70;78.00
14850;DHT22;7517;48.400;11.770;2022-12-19T08:05:39;3.30;77.00
14850;DHT22;7517;48.400;11.770;2022-12-19T08:08:06;3.30;76.70
14850;DHT22;7517;48.400;11.770;2022-12-19T08:10:34;3.40;76.60
14850;DHT22;7517;48.400;11.770;2022-12-19T08:13:02;3.40;76.70
14850;DHT22;7517;48.400;11.770;2022-12-19T08:15:30;3.40;76.70
14850;DHT22;7517;48.400;11.770;2022-12-19T08:17:57;3.50;76.80
14850;DHT22;7517;48.400;11.770;2022-12-19T08:20:24;3.50;76.90
14850;DHT22;7517;48.400;11.770;2022-12-19T08:22:51;4.50;77.30
14850;DHT22;7517;48.400;11.770;2022-12-19T08:25:19;4.00;77.00
14850;DHT22;7517;48.400;11.770;2022-12-19T08:27:46;3.60;76.60
14850;DHT22;7517;48.400;11.770;2022-12-19T08:30:15;4.20;77.10
14850;DHT22;7517;48.400;11.770;2022-12-19T08:32:43;3.80;76.70
14850;DHT22;7517;48.400;11.770;2022-12-19T08:35:10;4.90;77.40
14850;DHT22;7517;48.400;11.770;2022-12-19T08:37:37;3.70;76.40
14850;DHT22;7517;48.400;11.770;2022-12-19T08:40:06;3.80;76.90
14850;DHT22;7517;48.400;11.770;2022-12-19T08:42:34;3.80;76.70
14850;DHT22;7517;48.400;11.770;2022-12-19T08:45:01;3.80;76.80
14850;DHT22;7517;48.400;11.770;2022-12-19T08:47:31;4.10;76.90
14850;DHT22;7517;48.400;11.770;2022-12-19T08:49:58;3.90;76.80
14850;DHT22;7517;48.400;11.770;2022-12-19T08:52:25;4.00;76.90
14850;DHT22;7517;48.400;11.770;2022-12-19T08:54:52;5.10;77.60
14850;DHT22;7517;48.400;11.770;2022-12-19T08:57:19;4.00;77.10
14850;DHT22;7517;48.400;11.770;2022-12-19T08:59:46;4.10;77.10
14850;DHT22;7517;48.400;11.770;2022-12-19T09:02:13;4.10;77.00
14850;DHT22;7517;48.400;11.770;2022-12-19T09:04:43;4.00;77.10
14850;DHT22;7517;48.400;11.770;2022-12-19T09:07:10;4.20;77.20
14850;DHT22;7517;48.400;11.770;2022-12-19T09:09:38;4.30;77.30
14850;DHT22;7517;48.400;11.770;2022-12-19T09:12:05;4.30;77.10
14850;DHT22;7517;48.400;11.770;2022-12-19T09:14:32;4.40;77.00
14850;DHT22;7517;48.400;11.770;2022-12-19T09:17:00;4.40;77.10
14850;DHT22;7517;48.400;11.770;2022-12-19T09:19:27;4.40;77.10
14850;DHT22;7517;48.400;11.770;2022-12-19T09:21:56;4.50;77.30
14850;DHT22;7517;48.400;11.770;2022-12-19T09:24:23;4.50;77.30
14850;DHT22;7517;48.400;11.770;2022-12-19T09:26:50;4.60;77.20
14850;DHT22;7517;48.400;11.770;2022-12-19T09:29:18;4.60;77.20
14850;DHT22;7517;48.400;11.770;2022-12-19T09:31:45;4.60;77.10
14850;DHT22;7517;48.400;11.770;2022-12-19T09:34:12;4.70;77.20
14850;DHT22;7517;48.400;11.770;2022-12-19T09:36:39;4.80;77.20
14850;DHT22;7517;48.400;11.770;2022-12-19T09:39:09;4.80;77.10
14850;DHT22;7517;48.400;11.770;2022-12-19T09:42:03;4.80;77.10
14850;DHT22;7517;48.400;11.770;2022-12-19T09:44:51;4.90;76.80
14850;DHT22;7517;48.400;11.770;2022-12-19T09:47:32;5.00;76.90
14850;DHT22;7517;48.400;11.770;2022-12-19T09:50:01;5.00;77.20
14850;DHT22;7517;48.400;11.770;2022-12-19T09:52:53;5.00;77.10
14850;DHT22;7517;48.400;11.770;2022-12-19T09:55:27;5.10;77.10
14850;DHT22;7517;48.400;11.770;2022-12-19T09:58:03;5.10;77.00
14850;DHT22;7517;48.400;11.770;2022-12-19T10:00:36;5.10;77.00
14850;DHT22;7517;48.400;11.770;2022-12-19T10:03:16;5.20;76.90
14850;DHT22;7517;48.400;11.770;2022-12-19T10:05:50;5.20;76.70
14850;DHT22;7517;48.400;11.770;2022-12-19T10:08:24;5.20;76.90
14850;DHT22;7517;48.400;11.770;2022-12-19T10:11:05;5.20;77.00
14850;DHT22;7517;48.400;11.770;2022-12-19T10:13:45;5.30;77.20
14850;DHT22;7517;48.400;11.770;2022-12-19T10:16:32;5.30;77.30
14850;DHT22;7517;48.400;11.770;2022-12-19T10:19:21;6.70;78.10
14850;DHT22;7517;48.400;11.770;2022-12-19T10:21:58;5.40;77.30
14850;DHT22;7517;48.400;11.770;2022-12-19T10:24:48;5.40;77.20
14850;DHT22;7517;48.400;11.770;2022-12-19T10:27:40;5.50;77.00
14850;DHT22;7517;48.400;11.770;2022-12-19T10:30:15;5.50;77.30
14850;DHT22;7517;48.400;11.770;2022-12-19T10:32:56;5.50;77.40
14850;DHT22;7517;48.400;11.770;2022-12-19T10:35:33;6.00;77.50
14850;DHT22;7517;48.400;11.770;2022-12-19T10:38:13;5.60;77.30
14850;DHT22;7517;48.400;11.770;2022-12-19T10:40:49;5.70;77.30
14850;DHT22;7517;48.400;11.770;2022-12-19T10:43:24;5.70;77.50
14850;DHT22;7517;48.400;11.770;2022-12-19T10:45:59;5.70;77.30
14850;DHT22;7517;48.400;11.770;2022-12-19T10:48:30;6.00;77.50
14850;DHT22;7517;48.400;11.770;2022-12-19T10:50:58;5.70;77.30
14850;DHT22;7517;48.400;11.770;2022-12-19T10:53:27;5.80;77.30
14850;DHT22;7517;48.400;11.770;2022-12-19T10:56:00;5.80;77.40
14850;DHT22;7517;48.400;11.770;2022-12-19T10:58:34;5.80;77.30
14850;DHT22;7517;48.400;11.770;2022-12-19T11:01:09;5.90;77.50
14850;DHT22;7517;48.400;11.770;2022-12-19T11:03:40;5.90;77.60
14850;DHT22;7517;48.400;11.770;2022-12-19T11:06:43;5.90;77.60
14850;DHT22;7517;48.400;11.770;2022-12-19T11:09:24;5.90;77.00
14850;DHT22;7517;48.400;11.770;2022-12-19T11:12:08;6.00;77.30
14850;DHT22;7517;48.400;11.770;2022-12-19T11:14:40;6.00;77.30
14850;DHT22;7517;48.400;11.770;2022-12-19T11:17:26;6.20;77.50
14850;DHT22;7517;48.400;11.770;2022-12-19T11:20:10;6.10;77.20
14850;DHT22;7517;48.400;11.770;2022-12-19T11:22:39;6.10;77.30
14850;DHT22;7517;48.400;11.770;2022-12-19T11:25:19;6.10;77.50
14850;DHT22;7517;48.400;11.770;2022-12-19T11:27:48;6.10;77.50
14850;DHT22;7517;48.400;11.770;2022-12-19T11:30:23;6.20;77.60
14850;DHT22;7517;48.400;11.770;2022-12-19T11:33:07;6.20;77.40
14850;DHT22;7517;48.400;11.770;2022-12-19T11:35:46;6.20;77.20
14850;DHT22;7517;48.400;11.770;2022-12-19T11:38:17;6.20;77.40
14850;DHT22;7517;48.400;11.770;2022-12-19T11:41:12;6.40;77.70
14850;DHT22;7517;48.400;11.770;2022-12-19T11:43:49;6.30;77.50
14850;DHT22;7517;48.400;11.770;2022-12-19T11:46:33;6.30;77.50
14850;DHT22;7517;48.400;11.770;2022-12-19T11:49:12;6.30;77.40
14850;DHT22;7517;48.400;11.770;2022-12-19T11:51:53;6.40;77.70
14850;DHT22;7517;48.400;11.770;2022-12-19T11:54:26;6.40;77.90
14850;DHT22;7517;48.400;11.770;2022-12-19T11:56:58;6.40;77.90
14850;DHT22;7517;48.400;11.770;2022-12-19T11:59:30;7.30;78.50
14850;DHT22;7517;48.400;11.770;2022-12-19T12:02:32;6.60;78.10
14850;DHT22;7517;48.400;11.770;2022-12-19T12:05:46;6.50;77.30
14850;DHT22;7517;48.400;11.770;2022-12-19T12:08:43;6.40;77.50
14850;DHT22;7517;48.400;11.770;2022-12-19T12:11:37;7.20;77.80
14850;DHT22;7517;48.400;11.770;2022-12-19T12:14:17;6.50;77.90
14850;DHT22;7517;48.400;11.770;2022-12-19T12:17:14;6.50;77.80
14850;DHT22;7517;48.400;11.770;2022-12-19T12:20:00;6.40;77.60
14850;DHT22;7517;48.400;11.770;2022-12-19T12:22:55;6.50;77.90
14850;DHT22;7517;48.400;11.770;2022-12-19T12:25:46;6.50;78.00
14850;DHT22;7517;48.400;11.770;2022-12-19T12:28:51;6.70;77.90
14850;DHT22;7517;48.400;11.770;2022-12-19T12:31:45;6.60;77.60
14850;DHT22;7517;48.400;11.770;2022-12-19T12:34:41;6.50;77.30
14850;DHT22;7517;48.400;11.770;2022-12-19T12:37:36;6.50;77.70
14850;DHT22;7517;48.400;11.770;2022-12-19T12:40:36;6.60;77.90
14850;DHT22;7517;48.400;11.770;2022-12-19T12:43:24;6.60;77.40
14850;DHT22;7517;48.400;11.770;2022-12-19T12:46:13;6.50;77.90
14850;DHT22;7517;48.400;11.770;2022-12-19T12:48:49;6.70;78.20
14850;DHT22;7517;48.400;11.770;2022-12-19T12:51:22;6.60;78.20
14850;DHT22;7517;48.400;11.770;2022-12-19T12:53:57;6.50;78.20
14850;DHT22;7517;48.400;11.770;2022-12-19T12:56:30;6.60;78.10
14850;DHT22;7517;48.400;11.770;2022-12-19T12:59:19;6.60;78.20
14850;DHT22;7517;48.400;11.770;2022-12-19T13:01:52;6.60;77.80
14850;DHT22;7517;48.400;11.770;2022-12-19T13:04:33;6.60;78.30
14850;DHT22;7517;48.400;11.770;2022-12-19T13:07:17;6.60;78.60
14850;DHT22;7517;48.400;11.770;2022-12-19T13:10:05;6.50;77.90
14850;DHT22;7517;48.400;11.770;2022-12-19T13:12:52;6.60;77.90
14850;DHT22;7517;48.400;11.770;2022-12-19T13:15:36;7.50;78.70
14850;DHT22;7517;48.400;11.770;2022-12-19T13:21:02;7.00;78.60
14850;DHT22;7517;48.400;11.770;2022-12-19T13:26:50;6.60;77.30
14850;DHT22;7517;48.400;11.770;2022-12-19T13:29:30;8.10;79.10
14850;DHT22;7517;48.400;11.770;2022-12-19T13:32:19;6.50;77.90
14850;DHT22;7517;48.400;11.770;2022-12-19T13:34:53;6.50;78.30
14850;DHT22;7517;48.400;11.770;2022-12-19T13:37:28;7.80;79.30
14850;DHT22;7517;48.400;11.770;2022-12-19T13:40:23;7.20;79.00
14850;DHT22;7517;48.400;11.770;2022-12-19T13:43:00;6.60;78.30
14850;DHT22;7517;48.400;11.770;2022-12-19T13:45:55;7.10;78.90
14850;DHT22;7517;48.400;11.770;2022-12-19T13:48:28;6.60;78.80
14850;DHT22;7517;48.400;11.770;2022-12-19T13:51:02;7.30;79.30
14850;DHT22;7517;48.400;11.770;2022-12-19T13:53:31;6.60;78.90
14850;DHT22;7517;48.400;11.770;2022-12-19T13:56:00;7.40;79.50
14850;DHT22;7517;48.400;11.770;2022-12-19T13:58:36;6.60;79.00
14850;DHT22;7517;48.400;11.770;2022-12-19T14:01:15;6.70;79.00
14850;DHT22;7517;48.400;11.770;2022-12-19T14:03:48;6.70;78.90
14850;DHT22;7517;48.400;11.770;2022-12-19T14:06:19;7.00;79.00
14850;DHT22;7517;48.400;11.770;2022-12-19T14:08:52;6.70;78.70
14850;DHT22;7517;48.400;11.770;2022-12-19T14:11:21;6.40;78.70
14850;DHT22;7517;48.400;11.770;2022-12-19T14:13:53;7.00;79.00
14850;DHT22;7517;48.400;11.770;2022-12-19T14:16:40;6.70;78.60
14850;DHT22;7517;48.400;11.770;2022-12-19T14:19:17;7.40;79.00
14850;DHT22;7517;48.400;11.770;2022-12-19T14:21:49;7.80;79.10
14850;DHT22;7517;48.400;11.770;2022-12-19T14:24:18;6.70;78.60
14850;DHT22;7517;48.400;11.770;2022-12-19T14:26:49;7.00;78.70
14850;DHT22;7517;48.400;11.770;2022-12-19T14:29:24;7.80;79.40
14850;DHT22;7517;48.400;11.770;2022-12-19T14:31:55;7.20;79.00
14850;DHT22;7517;48.400;11.770;2022-12-19T14:34:26;6.60;78.60
14850;DHT22;7517;48.400;11.770;2022-12-19T14:36:57;6.60;78.50
14850;DHT22;7517;48.400;11.770;2022-12-19T14:39:29;7.30;78.70
14850;DHT22;7517;48.400;11.770;2022-12-19T14:42:02;7.60;78.90
14850;DHT22;7517;48.400;11.770;2022-12-19T14:44:51;6.50;79.00
14850;DHT22;7517;48.400;11.770;2022-12-19T14:47:22;6.50;79.20
14850;DHT22;7517;48.400;11.770;2022-12-19T14:49:50;6.40;78.60
14850;DHT22;7517;48.400;11.770;2022-12-19T14:52:39;7.00;79.50
14850;DHT22;7517;48.400;11.770;2022-12-19T14:55:29;6.50;77.90
14850;DHT22;7517;48.400;11.770;2022-12-19T14:58:06;6.40;77.90
14850;DHT22;7517;48.400;11.770;2022-12-19T15:00:44;6.50;78.40
14850;DHT22;7517;48.400;11.770;2022-12-19T15:03:21;6.40;78.20
14850;DHT22;7517;48.400;11.770;2022-12-19T15:05:51;6.30;78.10
14850;DHT22;7517;48.400;11.770;2022-12-19T15:08:28;7.50;79.10
14850;DHT22;7517;48.400;11.770;2022-12-19T15:10:58;6.60;78.50
14850;DHT22;7517;48.400;11.770;2022-12-19T15:13:51;6.90;78.70
14850;DHT22;7517;48.400;11.770;2022-12-19T15:16:29;6.20;78.30
14850;DHT22;7517;48.400;11.770;2022-12-19T15:19:00;6.60;78.50
14850;DHT22;7517;48.400;11.770;2022-12-19T15:21:29;6.20;78.70
14850;DHT22;7517;48.400;11.770;2022-12-19T15:23:59;6.20;78.60
14850;DHT22;7517;48.400;11.770;2022-12-19T15:26:29;7.20;79.20
14850;DHT22;7517;48.400;11.770;2022-12-19T15:28:58;6.10;78.50
14850;DHT22;7517;48.400;11.770;2022-12-19T15:31:33;6.10;78.40
14850;DHT22;7517;48.400;11.770;2022-12-19T15:34:07;6.00;78.10
14850;DHT22;7517;48.400;11.770;2022-12-19T15:36:45;6.00;78.50
14850;DHT22;7517;48.400;11.770;2022-12-19T15:39:13;5.90;78.40
14850;DHT22;7517;48.400;11.770;2022-12-19T15:41:41;6.00;78.60
14850;DHT22;7517;48.400;11.770;2022-12-19T15:44:15;6.30;78.80
14850;DHT22;7517;48.400;11.770;2022-12-19T15:46:46;5.90;78.30
14850;DHT22;7517;48.400;11.770;2022-12-19T15:49:15;5.90;78.50
14850;DHT22;7517;48.400;11.770;2022-12-19T15:51:43;5.90;78.70
14850;DHT22;7517;48.400;11.770;2022-12-19T15:54:14;5.80;78.50
14850;DHT22;7517;48.400;11.770;2022-12-19T15:56:44;6.20;78.70
14850;DHT22;7517;48.400;11.770;2022-12-19T15:59:22;5.80;78.50
14850;DHT22;7517;48.400;11.770;2022-12-19T16:01:55;5.90;78.30
14850;DHT22;7517;48.400;11.770;2022-12-19T16:04:24;5.90;78.40
14850;DHT22;7517;48.400;11.770;2022-12-19T16:06:52;5.80;78.50
14850;DHT22;7517;48.400;11.770;2022-12-19T16:09:20;6.20;78.80
14850;DHT22;7517;48.400;11.770;2022-12-19T16:11:50;5.80;78.60
14850;DHT22;7517;48.400;11.770;2022-12-19T16:14:20;6.30;78.90
14850;DHT22;7517;48.400;11.770;2022-12-19T16:16:51;5.80;78.50
14850;DHT22;7517;48.400;11.770;2022-12-19T16:19:25;5.80;78.40
14850;DHT22;7517;48.400;11.770;2022-12-19T16:21:54;5.70;78.30
14850;DHT22;7517;48.400;11.770;2022-12-19T16:24:22;5.60;78.50
14850;DHT22;7517;48.400;11.770;2022-12-19T16:26:52;5.80;78.60
14850;DHT22;7517;48.400;11.770;2022-12-19T16:29:22;6.20;79.00
14850;DHT22;7517;48.400;11.770;2022-12-19T16:31:53;5.80;78.90
14850;DHT22;7517;48.400;11.770;2022-12-19T16:34:22;5.70;78.70
14850;DHT22;7517;48.400;11.770;2022-12-19T16:36:51;5.70;78.80